Karlovy Vary, Czech Republic

11:02 AM CEST on September 02, 2015 (GMT +0200)
IKARLOVA12 | | Change Station
CLOSE
Current Station
Personal Weather Station
Location: Hroznetin, Karlovarsky kraj
Elevation: 1476 ft
Nearby Weather Stations

Elev 1476 ft 50.31 °N, 12.87 °E | Updated 1 minute ago

Scattered Clouds
Scattered Clouds
62.7 °F
Feels Like 62.7 °F
N
3.0
Wind Variable Wind from SSW
Gusts 5.0 mph

Today
High -- | Low -- °F
--% Chance of Precip.
Yesterday
High -- | Low -- °F
Precip. -- in
6:23 AM 7:51 PM
Waning Gibbous, 82% visible
Pressure 30.04 in
Visibility 6.2 miles
Clouds Scattered Clouds 2400 ft
Dew Point 51 °F
Humidity 66%
Rainfall 0.00 in
Snow Depth Not available.
UV 4 out of 12
Pollen Not available.
Air Quality Not available.
Flu Activity Not available.
METAR ETIC 020858Z AUTO VRB01KT 9999 SCT024 17/10 A3005 RMK AO2 SLP171 T01700104 50000
Pressure 30.04 in
Visibility 6.2 miles
Clouds Scattered Clouds 2400 ft
Dew Point 51 °F
Humidity 66%
Rainfall 0.00 in
Snow Depth Not available.
UV 4 out of 12
Pollen Not available.
Air Quality Not available.
Flu Activity Not available.
METAR ETIC 020858Z AUTO VRB01KT 9999 SCT024 17/10 A3005 RMK AO2 SLP171 T01700104 50000

10-Day Weather Forecast

×

Almanac

Astronomy

Sep. 02, 2015 Rise Set
Actual Time
Civil Twilight
Nautical Twilight
Astronomical Twilight
Moon
Length of Visible Light
Length of Day
Tomorrow will be .
, % of the Moon is Illuminated

Today's Extremes

Country Highs Country Lows

Community

WunderPhotos

Upload Photos

1,851,728 photos uploaded!

WunderBlogs® & News

Nearby

Air Quality

  Air Quality AQ Index Pollutant
Not available.

Snow Depth

Station Depth Elevation

Earthquake Activity

City Distance Mag. Time & Date
Minimum magnitude displayed is 2.5.

Coastal Water Temperatures

Place Temperature

Stations

Nearby Weather Stations

Station Location Temp. Windchill Dew Point Humidity Wind Precip. Elev Updated Type